Time;durP1;ratioP1;P1;durP2;ratioP2;P2;SDS_P1;SDS_P2;PMS_P1;PMS_P2;Temp;Humidity;BMP_temperature;BMP_pressure;BME280_temperature;BME280_humidity;BME280_pressure;Samples;Min_cycle;Max_cycle;Signal;HPM_P1;HPM_P2
2022/06/03 00:03:14;;;;;;;1.40;1.23;;;15.20;91.40;;;15.51;61.68;101276.25;5208800;28;20512;-75
2022/06/03 00:06:10;;;;;;;2.05;1.52;;;15.20;91.90;;;15.45;62.18;101271.78;5183444;28;20458;-76
2022/06/03 00:09:39;;;;;;;1.40;1.30;;;15.20;92.40;;;15.41;62.65;101269.94;5208773;28;20080;-76
2022/06/03 00:13:03;;;;;;;1.60;1.33;;;15.10;93.10;;;15.35;62.74;101261.03;5209051;28;20414;-74
2022/06/03 00:16:02;;;;;;;1.58;1.45;;;15.00;93.60;;;15.31;62.94;101267.94;5208715;28;20064;-73
2022/06/03 00:19:15;;;;;;;1.42;1.33;;;15.00;93.90;;;15.29;63.31;101269.66;5208935;28;20045;-75
2022/06/03 00:22:24;;;;;;;1.40;1.23;;;15.00;94.40;;;15.27;63.42;101268.75;5195228;28;20080;-73
2022/06/03 00:25:20;;;;;;;1.25;1.15;;;15.00;95.20;;;15.25;63.54;101266.91;5172132;28;20055;-75
2022/06/03 00:28:11;;;;;;;1.63;1.40;;;14.90;95.10;;;15.20;63.20;101266.81;5229409;28;20049;-75
2022/06/03 00:31:02;;;;;;;1.42;1.33;;;14.90;95.10;;;15.16;64.01;101267.59;5229034;28;20049;-73
2022/06/03 00:33:56;;;;;;;2.28;1.30;;;14.80;95.70;;;15.12;64.29;101256.13;5229924;28;20131;-74
2022/06/03 00:36:46;;;;;;;;;;;14.80;96.10;;;15.09;64.08;101263.06;5230539;28;20048;-74
2022/06/03 00:39:48;;;;;;;1.65;1.30;;;14.70;96.10;;;15.04;63.77;101262.03;5229235;28;19920;-75
2022/06/03 00:42:45;;;;;;;1.75;1.33;;;14.70;96.10;;;15.02;64.19;101263.75;5229920;28;20055;-75
2022/06/03 00:45:50;;;;;;;2.35;1.60;;;14.70;96.50;;;14.97;64.46;101262.75;5230184;28;20053;-73
2022/06/03 00:48:43;;;;;;;1.25;1.15;;;14.70;96.80;;;14.87;65.06;101254.66;5226975;28;20504;-74
2022/06/03 00:52:06;;;;;;;1.77;1.63;;;14.60;97.30;;;14.77;65.67;101263.16;5230283;28;20055;-74
2022/06/03 00:55:37;;;;;;;1.63;1.52;;;14.50;97.80;;;14.63;66.67;101256.66;5231068;28;20081;-73
2022/06/03 00:58:38;;;;;;;2.15;1.70;;;14.40;98.30;;;14.55;67.26;101250.34;5196589;28;20429;-74
2022/06/03 01:01:15;;;;;;;2.75;1.80;;;14.30;99.00;;;14.48;67.58;101249.28;5232583;28;20099;-74
2022/06/03 01:04:11;;;;;;;2.75;1.60;;;14.20;99.40;;;14.40;68.38;101246.41;5231502;28;20557;-74
2022/06/03 01:06:56;;;;;;;1.98;1.63;;;14.20;99.90;;;14.36;68.80;101246.31;5231047;28;20078;-75
2022/06/03 01:09:50;;;;;;;1.73;1.33;;;14.10;99.90;;;14.33;69.32;101254.97;5231666;28;20049;-73
2022/06/03 01:12:54;;;;;;;1.88;1.55;;;14.10;99.90;;;14.29;69.25;101250.50;5231542;28;20057;-75
2022/06/03 01:15:36;;;;;;;1.95;1.50;;;14.00;99.90;;;14.24;69.31;101249.50;5232664;28;20057;-74
2022/06/03 01:18:30;;;;;;;2.28;1.52;;;14.00;99.90;;;14.18;69.80;101244.06;5231759;28;20045;-74
2022/06/03 01:21:11;;;;;;;;;;;13.90;99.90;;;14.10;69.87;101245.59;5233693;28;20059;-74
2022/06/03 01:24:37;;;;;;;1.67;1.42;;;13.90;99.90;;;14.01;70.34;101238.34;5232419;28;19921;-74
2022/06/03 01:27:49;;;;;;;3.53;1.83;;;13.80;99.90;;;13.93;70.71;101242.50;5231650;28;20451;-75
2022/06/03 01:30:25;;;;;;;1.60;1.35;;;13.70;99.90;;;13.88;71.21;101248.44;5232794;28;20064;-74
2022/06/03 01:33:31;;;;;;;1.73;1.45;;;13.60;99.90;;;13.80;71.50;101246.50;5232173;28;20053;-73
2022/06/03 01:36:56;;;;;;;2.33;1.40;;;13.60;99.90;;;13.75;72.11;101248.09;5230168;28;20414;-74
2022/06/03 01:40:17;;;;;;;2.13;1.63;;;13.50;99.90;;;13.70;72.25;101248.84;5179074;28;20059;-73
2022/06/03 01:43:27;;;;;;;2.08;1.80;;;13.50;99.90;;;13.64;72.12;101248.66;5232320;28;20490;-74
2022/06/03 01:46:25;;;;;;;1.73;1.58;;;13.40;99.90;;;13.60;72.10;101247.66;5238395;28;20131;-75
2022/06/03 01:49:39;;;;;;;2.25;1.73;;;13.40;99.90;;;13.59;72.09;101240.66;5237880;28;20045;-73
2022/06/03 01:52:54;;;;;;;2.17;1.98;;;13.40;99.90;;;13.60;71.98;101236.31;5239157;28;20108;-74
2022/06/03 01:56:05;;;;;;;1.95;1.58;;;13.30;99.90;;;13.60;72.33;101237.19;5238835;28;20053;-73
2022/06/03 01:59:19;;;;;;;2.40;1.85;;;13.40;99.90;;;13.58;72.61;101238.88;5196855;28;20136;-73
2022/06/03 02:02:39;;;;;;;2.17;1.65;;;13.40;99.90;;;13.52;72.84;101229.09;5242069;28;20049;-73
2022/06/03 02:05:45;;;;;;;1.67;1.58;;;13.30;99.90;;;13.49;73.08;101239.47;5214113;28;20112;-73
2022/06/03 02:09:00;;;;;;;2.20;1.50;;;13.30;99.90;;;13.47;72.94;101232.44;5240295;28;20044;-74
2022/06/03 02:12:02;;;;;;;1.67;1.50;;;13.30;99.90;;;13.46;73.13;101225.41;5240832;28;20064;-73
2022/06/03 02:15:13;;;;;;;2.22;1.65;;;13.20;99.90;;;13.42;73.28;101221.81;5211502;28;20220;-74
2022/06/03 02:18:34;;;;;;;2.13;1.63;;;13.20;99.90;;;13.39;73.73;101215.59;5219087;28;20105;-73
2022/06/03 02:21:51;;;;;;;1.60;1.40;;;13.20;99.90;;;13.34;73.60;101214.56;5219730;28;20055;-75
2022/06/03 02:25:23;;;;;;;1.58;1.42;;;13.10;99.90;;;13.27;73.88;101222.22;5183209;28;20081;-74
2022/06/03 02:28:19;;;;;;;3.15;1.92;;;13.10;99.90;;;13.22;74.10;101205.50;5167629;28;20041;-75
2022/06/03 02:31:28;;;;;;;1.80;1.70;;;13.00;99.90;;;13.17;74.15;101214.94;5219251;28;20068;-74
2022/06/03 02:34:45;;;;;;;1.98;1.58;;;13.00;99.90;;;13.10;74.63;101202.47;5219150;28;20049;-76
2022/06/03 02:38:05;;;;;;;2.90;1.83;;;12.90;99.90;;;13.03;74.88;101206.63;5206037;28;20080;-76
2022/06/03 02:41:11;;;;;;;1.80;1.67;;;12.80;99.90;;;13.00;75.24;101195.19;5218820;28;20128;-74
2022/06/03 02:44:19;;;;;;;1.98;1.40;;;12.80;99.90;;;12.97;75.19;101202.91;5215095;28;20497;-72
2022/06/03 02:47:38;;;;;;;1.48;1.27;;;12.80;99.90;;;12.96;75.53;101203.75;5218495;28;20252;-74
2022/06/03 02:50:35;;;;;;;1.92;1.70;;;12.80;99.90;;;12.93;75.21;101187.97;5176475;28;20132;-73
2022/06/03 02:54:01;;;;;;;1.63;1.48;;;12.70;99.90;;;12.89;75.52;101191.31;5219888;28;20049;-75
2022/06/03 02:57:17;;;;;;;2.20;1.42;;;12.70;99.90;;;12.83;75.91;101191.13;5220415;28;20053;-76
2022/06/03 03:00:16;;;;;;;1.92;1.58;;;12.60;99.90;;;12.77;76.21;101192.72;5204076;28;20049;-75
2022/06/03 03:03:30;;;;;;;2.20;1.70;;;12.60;99.90;;;12.75;76.24;101196.13;5220142;28;20542;-73
2022/06/03 03:06:50;;;;;;;2.00;1.80;;;12.60;99.90;;;12.72;76.51;101196.94;5217613;28;20112;-73
2022/06/03 03:10:10;;;;;;;1.77;1.50;;;12.50;99.90;;;12.68;76.33;101197.66;5220635;28;20531;-75
2022/06/03 03:13:00;;;;;;;2.05;1.65;;;12.50;99.90;;;12.64;76.33;101198.38;5220764;28;20091;-74
2022/06/03 03:16:29;;;;;;;2.05;1.70;;;12.50;99.90;;;12.61;76.59;101200.03;5220524;28;20109;-74
2022/06/03 03:19:43;;;;;;;2.35;1.63;;;12.40;99.90;;;12.58;77.03;101189.44;5172816;28;20133;-73
2022/06/03 03:22:50;;;;;;;1.85;1.67;;;12.40;99.90;;;12.56;77.12;101194.63;5221372;28;20049;-75
2022/06/03 03:25:38;;;;;;;1.65;1.42;;;12.40;99.90;;;12.53;76.94;101197.16;5221489;28;20084;-74
2022/06/03 03:28:30;;;;;;;;;;;12.40;99.90;;;12.49;77.11;101200.50;5220895;28;20559;-73
2022/06/03 03:31:30;;;;;;;2.22;1.63;;;12.30;99.90;;;12.46;77.47;101189.94;5220104;28;19984;-74
2022/06/03 03:34:22;;;;;;;2.40;1.92;;;12.30;99.90;;;12.43;77.38;101201.19;5220040;28;20061;-75
2022/06/03 03:37:45;;;;;;;2.33;1.83;;;12.30;99.90;;;12.41;77.62;101208.09;5220935;28;20113;-73
2022/06/03 03:40:54;;;;;;;2.45;1.75;;;12.30;99.90;;;12.44;78.09;101208.19;5219684;28;20072;-74
2022/06/03 03:44:04;;;;;;;1.60;1.30;;;12.30;99.90;;;12.47;77.59;101208.31;5219819;28;20132;-76
2022/06/03 03:47:20;;;;;;;1.63;1.50;;;12.30;99.90;;;12.44;77.50;101202.06;5219411;28;20053;-74
2022/06/03 03:50:55;;;;;;;1.60;1.50;;;12.30;99.90;;;12.41;77.51;101197.63;5219613;28;20124;-73
2022/06/03 03:54:15;;;;;;;1.65;1.55;;;12.30;99.90;;;12.43;77.86;101205.53;5221151;28;20563;-73
2022/06/03 03:57:49;;;;;;;2.60;1.65;;;12.20;99.90;;;12.43;77.88;101205.53;5221841;28;20057;-74
2022/06/03 04:01:06;;;;;;;2.10;1.83;;;12.30;99.90;;;12.43;77.63;101202.91;5221179;28;20463;-73
2022/06/03 04:04:27;;;;;;;1.85;1.65;;;12.20;99.90;;;12.44;77.60;101191.59;5220952;28;20132;-75
2022/06/03 04:07:38;;;;;;;1.85;1.75;;;12.30;99.90;;;12.46;78.00;101185.63;5220431;28;20084;-75
2022/06/03 04:11:02;;;;;;;1.90;1.63;;;12.30;99.90;;;12.48;78.04;101185.66;5221258;28;20053;-73
2022/06/03 04:14:17;;;;;;;3.53;1.70;;;12.30;99.90;;;12.55;78.44;101176.28;5219462;28;20128;-74
2022/06/03 04:17:13;;;;;;;2.78;2.10;;;12.30;99.90;;;12.59;78.25;101176.44;5219603;28;20160;-75
2022/06/03 04:20:21;;;;;;;1.80;1.42;;;12.40;99.90;;;12.63;78.57;101172.19;5219767;28;20105;-74
2022/06/03 04:23:43;;;;;;;3.05;2.05;;;12.40;99.90;;;12.67;78.24;101164.50;5220591;28;20084;-74
2022/06/03 04:27:01;;;;;;;2.13;1.60;;;12.50;99.90;;;12.70;78.33;101175.03;5220970;28;20045;-74
2022/06/03 04:30:24;;;;;;;1.95;1.52;;;12.50;99.90;;;12.75;78.57;101183.94;5227497;23;20042;-80
2022/06/03 04:33:54;;;;;;;2.30;1.83;;;12.60;99.90;;;12.80;79.05;101176.25;5199568;28;20054;-80
2022/06/03 04:37:17;;;;;;;2.42;1.77;;;12.60;99.90;;;12.87;78.88;101172.09;5168594;28;20076;-81
2022/06/03 04:40:44;;;;;;;2.80;1.80;;;12.70;99.90;;;12.96;79.03;101161.91;5168715;28;20062;-81
2022/06/03 04:44:16;;;;;;;1.48;1.38;;;12.70;99.90;;;13.12;78.24;101164.16;5174174;28;20082;-82
2022/06/03 04:47:50;;;;;;;2.97;2.22;;;12.90;99.90;;;13.41;79.15;101164.16;5175372;28;20515;-81
2022/06/03 04:51:04;;;;;;;4.80;3.03;;;13.10;99.90;;;14.13;78.85;101167.91;5175682;28;20143;-81
2022/06/03 04:54:42;;;;;;;5.55;3.00;;;13.60;99.90;;;15.13;73.33;101173.91;5165534;28;20113;-81
2022/06/03 04:58:14;;;;;;;4.65;2.70;;;14.40;99.90;;;16.28;65.47;101163.91;5189925;28;20138;-81
2022/06/03 05:01:33;;;;;;;4.78;2.38;;;15.30;99.90;;;17.31;61.06;101170.81;5173545;28;20050;-81
2022/06/03 05:04:54;;;;;;;;;;;16.30;99.80;;;18.02;58.72;101175.19;5171182;28;20061;-81
2022/06/03 05:08:07;;;;;;;4.53;2.40;;;17.00;97.80;;;18.77;56.43;101173.22;5170611;28;19944;-79
2022/06/03 05:11:52;;;;;;;4.32;2.72;;;17.80;96.10;;;19.27;52.32;101175.31;5172380;28;20145;-81
2022/06/03 05:15:21;;;;;;;7.60;2.75;;;18.40;92.70;;;19.76;50.28;101177.34;5173488;28;20101;-82
2022/06/03 05:18:46;;;;;;;5.53;2.40;;;18.80;90.40;;;20.34;48.10;101168.59;5102739;28;20076;-80
2022/06/03 05:21:53;;;;;;;4.07;2.10;;;19.30;86.90;;;20.86;46.29;101156.28;5178186;28;20106;-80
2022/06/03 05:25:17;;;;;;;3.17;2.03;;;19.80;82.80;;;21.44;44.86;101159.66;5177612;28;20078;-81
2022/06/03 05:28:25;;;;;;;2.20;1.70;;;20.40;80.00;;;21.80;43.35;101169.22;5175727;28;20085;-80
2022/06/03 05:31:48;;;;;;;3.10;1.60;;;20.80;75.80;;;22.00;42.89;101155.84;5177993;28;20058;-79
2022/06/03 05:35:10;;;;;;;3.40;1.58;;;21.10;74.50;;;22.41;41.75;101161.75;5177688;28;20046;-79
2022/06/03 05:38:04;;;;;;;1.83;1.33;;;21.40;72.30;;;22.67;40.54;101171.28;5178096;28;20050;-80
2022/06/03 05:44:27;;;;;;;2.35;1.33;;;21.80;69.60;;;22.99;40.28;101153.28;5178054;28;20126;-81
2022/06/03 05:47:05;;;;;;;2.13;1.40;;;22.00;68.40;;;23.20;39.66;101152.16;5170532;28;20393;-82
2022/06/03 05:49:51;;;;;;;2.72;1.58;;;22.20;67.40;;;23.36;39.46;101150.19;5168466;28;20042;-79
2022/06/03 05:52:45;;;;;;;1.65;1.38;;;22.40;67.30;;;23.48;39.49;101151.84;5164862;28;20046;-80
2022/06/03 05:55:37;;;;;;;2.10;1.20;;;22.50;66.70;;;23.60;39.28;101145.44;5165486;28;20461;-80
2022/06/03 05:58:34;;;;;;;1.92;1.30;;;22.70;65.90;;;23.59;39.73;101141.91;5167558;28;20078;-81
2022/06/03 06:01:30;;;;;;;6.38;1.45;;;22.70;66.60;;;23.52;39.44;101138.44;5160317;28;20047;-80
2022/06/03 06:04:17;;;;;;;2.17;1.30;;;22.60;65.60;;;23.57;39.77;101122.44;5167627;28;20126;-80
2022/06/03 06:07:02;;;;;;;2.78;1.30;;;22.70;66.40;;;23.72;38.67;101118.72;5166186;28;20038;-81
2022/06/03 06:09:48;;;;;;;2.38;1.40;;;22.80;64.90;;;23.85;38.63;101122.06;5169509;28;20049;-81
2022/06/03 06:12:40;;;;;;;2.55;1.30;;;22.90;64.40;;;23.95;37.83;101121.94;5158166;28;20126;-79
2022/06/03 06:15:39;;;;;;;1.85;1.40;;;23.00;63.50;;;24.18;38.54;101128.66;5159654;28;20402;-80
2022/06/03 06:18:23;;;;;;;2.33;1.27;;;23.10;64.40;;;24.49;37.57;101129.94;5154339;28;20057;-79
2022/06/03 06:21:12;;;;;;;1.77;1.30;;;23.40;63.10;;;24.80;37.11;101124.94;5164691;28;20046;-79
2022/06/03 06:23:47;;;;;;;2.95;1.30;;;23.70;62.60;;;25.01;36.66;101130.78;5162874;28;20051;-81
2022/06/03 06:27:12;;;;;;;1.77;1.15;;;23.90;62.00;;;25.35;36.24;101129.22;5164097;28;20053;-81
2022/06/03 06:30:21;;;;;;;1.38;1.20;;;24.10;61.50;;;25.62;35.58;101138.41;5162567;28;20093;-79
2022/06/03 06:34:01;;;;;;;4.13;1.30;;;24.50;60.40;;;25.77;36.07;101131.03;5164344;28;20050;-80
2022/06/03 06:37:06;;;;;;;1.20;1.10;;;24.70;60.80;;;25.92;34.72;101130.66;5157843;28;20310;-82
2022/06/03 06:40:08;;;;;;;1.05;0.95;;;24.90;59.20;;;25.75;34.64;101144.41;5163684;28;20432;-81
2022/06/03 06:42:55;;;;;;;1.20;0.90;;;24.80;58.10;;;25.63;34.96;101137.53;5165867;28;20058;-84
2022/06/03 06:45:46;;;;;;;1.95;1.17;;;24.70;58.70;;;25.65;35.35;101132.16;5172855;28;20128;-86
2022/06/03 06:48:35;;;;;;;2.45;1.20;;;24.70;58.90;;;25.62;35.16;101130.41;5167615;28;20684;-85
2022/06/03 06:51:46;;;;;;;2.78;1.20;;;24.70;58.50;;;25.80;35.01;101131.81;5168974;28;20077;-85
2022/06/03 06:54:27;;;;;;;1.67;1.40;;;24.80;58.70;;;25.84;35.24;101127.31;5179929;28;20413;-85
2022/06/03 06:57:04;;;;;;;3.72;1.55;;;24.80;58.60;;;25.86;35.11;101128.13;5164629;28;20043;-84
2022/06/03 06:59:40;;;;;;;2.58;1.42;;;24.90;58.80;;;25.83;35.05;101130.91;5158485;28;20429;-82
2022/06/03 07:02:20;;;;;;;2.55;1.02;;;24.90;58.30;;;26.05;34.61;101139.28;5160099;28;20540;-81
2022/06/03 07:05:00;;;;;;;1.27;1.13;;;25.00;58.00;;;26.37;34.52;101147.38;5158332;28;20130;-80
2022/06/03 07:07:40;;;;;;;2.45;1.20;;;25.20;58.00;;;26.61;33.80;101148.59;5160163;28;20046;-80
2022/06/03 07:10:18;;;;;;;0.98;0.93;;;25.50;57.30;;;26.62;33.59;101145.00;5150410;28;20452;-79
2022/06/03 07:12:58;;;;;;;4.47;1.33;;;25.70;56.70;;;26.39;33.81;101152.69;5152411;28;20050;-79
2022/06/03 07:15:46;;;;;;;1.88;1.00;;;25.50;56.60;;;26.00;34.45;101152.72;5152274;28;20047;-79
2022/06/03 07:21:41;;;;;;;1.40;1.10;;;24.90;58.30;;;25.35;36.06;101149.69;5113560;28;20051;-80
2022/06/03 07:24:21;;;;;;;1.98;1.23;;;24.60;58.60;;;24.97;36.29;101143.28;5151926;28;20094;-79
2022/06/03 07:27:01;;;;;;;1.27;1.17;;;24.20;58.80;;;24.70;37.27;101131.34;5150936;28;20051;-79
2022/06/03 07:29:42;;;;;;;1.70;1.20;;;23.90;59.70;;;24.60;37.77;101132.44;5151844;28;20090;-80
2022/06/03 07:32:19;;;;;;;1.92;1.15;;;23.80;60.80;;;24.48;37.54;101128.19;5171041;28;20413;-78
2022/06/03 07:34:57;;;;;;;1.70;0.95;;;23.70;60.50;;;24.46;37.65;101119.34;5169855;28;20050;-79
2022/06/03 07:37:38;;;;;;;1.25;0.98;;;23.60;60.40;;;24.58;38.30;101115.56;5169117;28;20053;-78
2022/06/03 07:40:18;;;;;;;0.90;0.90;;;23.60;61.40;;;24.63;37.60;101109.25;5167444;28;20519;-79
2022/06/03 07:42:57;;;;;;;1.27;1.15;;;23.70;60.80;;;24.73;37.82;101106.44;5169218;28;20050;-79
2022/06/03 07:45:40;;;;;;;0.82;0.82;;;23.70;60.80;;;24.66;37.01;101111.00;5168361;28;20497;-79
2022/06/03 07:48:18;;;;;;;1.17;0.93;;;23.70;59.90;;;24.75;37.19;101099.28;5166688;28;20065;-80
2022/06/03 07:50:57;;;;;;;1.38;1.13;;;23.80;60.20;;;24.92;37.27;101098.97;5164294;28;20484;-79
2022/06/03 07:53:42;;;;;;;1.02;0.90;;;23.80;60.20;;;24.96;36.58;101093.53;5161532;28;20061;-81
2022/06/03 07:56:20;;;;;;;1.48;0.90;;;23.90;59.50;;;25.15;36.58;101086.94;5168463;28;20077;-79
2022/06/03 07:58:56;;;;;;;1.77;1.10;;;24.00;59.80;;;25.43;36.34;101086.38;5171564;28;20065;-81
2022/06/03 08:01:32;;;;;;;0.80;0.80;;;24.10;59.80;;;25.71;36.15;101086.63;5174478;28;20512;-84
2022/06/03 08:04:06;;;;;;;0.82;0.80;;;24.30;59.90;;;26.08;36.36;101084.00;5171368;28;20567;-87
2022/06/03 08:12:28;;;;;;;0.93;0.93;;;24.70;57.80;;;26.78;34.01;101076.81;5170165;28;20076;-85
2022/06/03 08:15:13;;;;;;;0.85;0.85;;;24.90;58.10;;;27.18;33.44;101067.66;5176390;28;20047;-85
2022/06/03 08:17:48;;;;;;;0.93;0.93;;;25.10;57.70;;;27.71;32.75;101059.84;5185469;28;20158;-87
2022/06/03 08:20:25;;;;;;;0.95;0.70;;;25.40;57.50;;;28.33;32.01;101067.63;5184283;28;20057;-86
2022/06/03 08:22:58;;;;;;;0.80;0.80;;;25.80;57.30;;;29.03;31.08;101061.56;5176199;28;20485;-86
2022/06/03 08:25:39;;;;;;;0.85;0.85;;;26.20;56.90;;;29.61;30.12;101069.19;5170595;28;20136;-87
2022/06/03 08:28:18;;;;;;;1.23;0.88;;;26.50;55.90;;;30.11;29.57;101068.94;5169146;28;20050;-84
2022/06/03 08:30:54;;;;;;;1.33;0.90;;;26.80;55.80;;;30.54;29.34;101062.63;5168912;28;20497;-86
2022/06/03 08:33:32;;;;;;;0.80;0.70;;;27.00;55.50;;;30.90;29.24;101062.78;5169800;28;20046;-86
2022/06/03 08:36:06;;;;;;;0.82;0.70;;;27.30;55.70;;;31.02;29.20;101064.06;5169057;28;20061;-87
2022/06/03 08:38:44;;;;;;;1.00;1.00;;;27.40;55.80;;;30.51;28.60;101057.34;5169035;28;20125;-86
2022/06/03 08:41:49;;;;;;;0.80;0.80;;;27.40;53.80;;;30.46;28.54;101062.97;5169321;28;20115;-86
2022/06/03 08:44:42;;;;;;;0.70;0.70;;;27.50;54.20;;;30.63;28.37;101055.94;5169246;28;20585;-86
2022/06/03 08:47:20;;;;;;;0.80;0.80;;;27.80;53.20;;;30.83;28.11;101057.78;5169050;28;20050;-87
2022/06/03 08:50:01;;;;;;;0.85;0.85;;;28.00;53.10;;;30.73;28.62;101065.41;5168472;28;20054;-86
2022/06/03 08:52:47;;;;;;;1.13;0.70;;;28.10;53.10;;;31.26;28.10;101056.69;5168451;28;20058;-86
2022/06/03 08:55:42;;;;;;;1.05;0.80;;;28.30;52.90;;;31.66;27.75;101052.09;5168811;28;20050;-87
2022/06/03 08:58:30;;;;;;;1.35;0.80;;;28.60;53.00;;;31.27;28.29;101061.13;5167854;28;20166;-82
2022/06/03 09:01:18;;;;;;;1.98;0.68;;;28.60;53.20;;;30.69;28.85;101061.09;5168541;28;20052;-83
2022/06/03 09:03:58;;;;;;;1.20;1.10;;;28.20;53.20;;;30.86;29.44;101058.53;5175715;28;20054;-81
2022/06/03 09:06:43;;;;;;;1.77;0.90;;;28.30;54.00;;;31.70;28.90;101056.41;5172596;28;20427;-82
2022/06/03 09:09:27;;;;;;;1.15;0.90;;;28.60;54.10;;;32.45;26.94;101061.59;5166815;28;20053;-82
2022/06/03 09:12:13;;;;;;;2.13;1.00;;;29.20;52.40;;;32.72;26.36;101058.41;5159630;28;20050;-81
2022/06/03 09:14:48;;;;;;;0.88;0.80;;;29.50;51.30;;;32.63;26.09;101065.16;5172314;28;20082;-84
2022/06/03 09:17:36;;;;;;;0.75;0.73;;;29.60;50.80;;;32.60;25.71;101052.72;5171699;28;20128;-82
2022/06/03 09:20:15;;;;;;;0.70;0.70;;;29.70;50.20;;;32.94;25.63;101045.53;5172611;28;20102;-81
2022/06/03 09:22:50;;;;;;;1.02;0.73;;;29.90;50.30;;;33.15;25.72;101048.88;5171281;28;20050;-83
2022/06/03 09:25:23;;;;;;;1.58;0.80;;;30.10;50.50;;;33.20;26.00;101044.97;5172615;28;20062;-80
2022/06/03 09:27:57;;;;;;;1.48;0.90;;;30.30;50.30;;;33.01;26.22;101041.53;5170262;28;20165;-80
2022/06/03 09:30:33;;;;;;;1.48;0.90;;;30.40;50.30;;;32.21;25.85;101042.13;5171361;28;20484;-83
2022/06/03 09:33:09;;;;;;;0.93;0.85;;;30.10;49.20;;;31.37;26.73;101035.53;5172120;28;20058;-78
2022/06/03 09:35:47;;;;;;;0.80;0.80;;;29.80;49.00;;;30.56;27.61;101038.31;5168888;28;20071;-80
2022/06/03 09:38:24;;;;;;;1.20;0.80;;;29.30;49.50;;;30.04;28.66;101029.81;5167918;28;20520;-80
2022/06/03 09:41:00;;;;;;;1.70;0.93;;;28.80;50.20;;;29.44;28.77;101025.03;5172232;28;20492;-82
2022/06/03 09:43:37;;;;;;;0.80;0.80;;;28.40;50.10;;;28.81;29.96;101018.50;5173011;28;20062;-81
2022/06/03 09:46:12;;;;;;;1.48;0.88;;;27.90;50.80;;;28.41;30.70;101020.91;5171602;28;20129;-78
2022/06/03 09:48:45;;;;;;;1.85;1.30;;;27.50;51.90;;;28.08;31.31;101018.44;5168793;28;20054;-79
2022/06/03 09:51:25;;;;;;;1.42;1.05;;;27.20;52.40;;;27.90;31.43;101017.25;5169226;28;20141;-80
2022/06/03 09:53:57;;;;;;;1.00;0.80;;;26.90;52.40;;;27.82;31.83;101011.28;5171482;28;20054;-81
2022/06/03 09:56:32;;;;;;;1.15;0.80;;;26.80;52.60;;;27.91;32.07;101010.06;5173557;28;20054;-80
2022/06/03 09:59:07;;;;;;;0.90;0.90;;;26.80;53.40;;;27.99;32.37;101000.00;5180042;28;20078;-79
2022/06/03 10:01:39;;;;;;;0.80;0.80;;;26.80;53.70;;;27.84;32.79;101001.38;5167688;28;20050;-79
2022/06/03 10:04:12;;;;;;;1.25;1.05;;;26.80;54.20;;;27.61;33.75;100994.06;5168241;28;20050;-80
2022/06/03 10:06:45;;;;;;;0.98;0.90;;;26.60;54.90;;;27.45;34.21;100993.72;5171068;28;20563;-78
2022/06/03 10:18:05;;;;;;;1.20;0.88;;;25.90;54.50;;;26.72;33.98;100996.75;5175303;28;20126;-81
2022/06/03 10:20:37;;;;;;;0.85;0.75;;;25.80;54.80;;;26.79;34.20;101000.13;5174308;28;20106;-81
2022/06/03 10:23:11;;;;;;;1.02;0.93;;;25.80;55.30;;;26.81;34.89;100987.63;5174449;28;20174;-83
2022/06/03 10:25:50;;;;;;;1.20;0.85;;;25.80;56.10;;;26.79;34.53;100990.31;5170749;28;20060;-81
2022/06/03 10:28:22;;;;;;;1.23;0.98;;;25.80;55.80;;;26.78;34.48;100985.88;5157424;28;20047;-81
2022/06/03 10:31:04;;;;;;;0.70;0.70;;;25.80;55.70;;;26.81;34.62;100989.41;5196865;23;20082;-90
2022/06/03 10:33:36;;;;;;;1.55;0.85;;;25.80;56.10;;;26.87;34.22;100981.22;5200635;28;20045;-88
2022/06/03 10:36:09;;;;;;;1.00;0.80;;;25.80;55.50;;;27.06;33.94;100979.78;5206879;28;20088;-87
2022/06/03 10:38:41;;;;;;;1.65;0.80;;;25.90;55.40;;;27.24;33.72;100983.66;5203403;28;20050;-86
2022/06/03 10:41:13;;;;;;;0.80;0.80;;;26.10;55.30;;;27.25;33.32;100972.03;5203023;28;20511;-86
2022/06/03 10:43:45;;;;;;;1.08;0.90;;;26.20;54.80;;;27.34;33.94;100979.78;5210709;28;20056;-87
2022/06/03 10:46:20;;;;;;;0.90;0.90;;;26.20;55.30;;;27.42;33.63;100976.84;5209881;28;20060;-86
2022/06/03 10:48:53;;;;;;;0.90;0.90;;;26.30;55.10;;;27.60;33.49;100973.59;5210656;28;20426;-85
2022/06/03 11:02:55;;;;;;;2.22;1.17;;;26.60;54.00;;;27.29;33.13;100971.88;5233597;28;20132;-84
2022/06/03 11:05:31;;;;;;;1.13;0.90;;;26.40;53.90;;;27.21;33.52;100965.03;5233376;28;20045;-85
2022/06/03 11:08:06;;;;;;;1.25;0.90;;;26.30;54.40;;;27.15;33.96;100966.09;5232322;28;20075;-86
2022/06/03 11:10:41;;;;;;;2.63;1.00;;;26.20;55.00;;;27.13;34.02;100959.06;5230886;28;20083;-86
2022/06/03 11:13:26;;;;;;;0.95;0.90;;;26.20;55.20;;;27.11;33.93;100951.06;5233233;28;20120;-87
2022/06/03 11:16:15;;;;;;;1.27;1.17;;;26.10;55.10;;;27.06;33.48;100942.31;5233261;28;20055;-86
2022/06/03 11:18:49;;;;;;;2.10;1.02;;;26.10;54.40;;;26.72;33.97;100927.25;5233151;28;20052;-87
2022/06/03 11:21:25;;;;;;;2.67;1.20;;;25.90;54.50;;;26.78;34.16;100926.19;5234516;28;20122;-86
2022/06/03 11:24:01;;;;;;;1.17;1.08;;;26.00;55.00;;;26.94;34.24;100927.47;5229145;28;20155;-87
2022/06/03 11:26:40;;;;;;;1.10;1.00;;;26.00;55.20;;;27.16;33.72;100922.38;5212412;28;20072;-88
2022/06/03 11:29:22;;;;;;;1.30;1.13;;;26.20;54.80;;;27.47;33.81;100913.34;5210802;28;20065;-89
2022/06/03 11:31:55;;;;;;;1.30;0.90;;;26.40;55.20;;;27.69;34.18;100902.81;5221770;28;20059;-88
2022/06/03 11:34:36;;;;;;;0.93;0.82;;;26.60;55.60;;;27.92;34.31;100893.97;5230993;28;20051;-84
2022/06/03 11:37:12;;;;;;;;;;;26.80;55.90;;;28.08;33.17;100909.44;5234583;28;20128;-85
2022/06/03 11:39:54;;;;;;;0.73;0.73;;;27.00;54.90;;;28.24;32.29;100899.06;5231490;28;19925;-85
2022/06/03 11:42:34;;;;;;;1.52;1.10;;;27.10;54.00;;;28.27;31.29;100888.22;5205135;28;20049;-88
2022/06/03 11:45:14;;;;;;;0.93;0.93;;;27.20;52.40;;;28.36;32.13;100881.66;5214043;28;20101;-85
2022/06/03 11:47:55;;;;;;;1.02;1.00;;;27.30;53.70;;;28.38;32.14;100880.69;5213684;28;20053;-86
2022/06/03 11:50:30;;;;;;;0.80;0.80;;;27.40;53.30;;;28.51;32.03;100886.47;5211636;28;20056;-87
2022/06/03 11:53:04;;;;;;;1.83;1.05;;;27.50;53.40;;;28.58;32.01;100887.09;5211631;28;20080;-85
2022/06/03 11:55:39;;;;;;;2.03;1.02;;;27.50;53.30;;;28.59;31.82;100888.84;5220064;28;20041;-86
2022/06/03 11:58:18;;;;;;;2.15;1.27;;;27.60;53.10;;;28.60;31.91;100891.44;5231587;28;20392;-86
2022/06/03 12:00:58;;;;;;;2.28;1.50;;;27.60;53.00;;;28.66;31.63;100879.63;5232755;28;20053;-86
2022/06/03 12:03:38;;;;;;;1.23;1.13;;;27.70;52.90;;;28.75;31.71;100879.25;5232076;28;20055;-88
2022/06/03 12:06:17;;;;;;;1.23;1.13;;;27.70;52.90;;;28.71;31.53;100880.31;5232637;28;20049;-86
2022/06/03 12:08:57;;;;;;;2.28;1.27;;;27.70;52.60;;;28.72;31.70;100879.38;5233527;28;20053;-85
2022/06/03 12:14:34;;;;;;;1.15;1.02;;;27.80;53.20;;;28.89;32.70;100868.88;5205158;28;20060;-85
2022/06/03 12:17:31;;;;;;;1.30;1.20;;;27.80;54.20;;;28.87;32.15;100870.72;5230908;28;20495;-85
2022/06/03 12:20:37;;;;;;;1.40;1.10;;;27.90;53.40;;;28.50;31.74;100873.13;5232789;28;20110;-87
2022/06/03 12:23:52;;;;;;;1.27;1.17;;;27.70;52.80;;;28.19;32.74;100868.88;5232293;28;20048;-86
2022/06/03 12:26:29;;;;;;;1.10;1.00;;;27.50;53.40;;;28.20;32.88;100873.28;5220580;28;20056;-85
2022/06/03 12:29:17;;;;;;;1.30;1.20;;;27.40;53.90;;;28.16;33.14;100877.00;5220690;28;20136;-86
2022/06/03 12:31:49;;;;;;;1.55;1.20;;;27.30;54.00;;;28.19;33.21;100876.03;5219667;28;20042;-82
2022/06/03 12:34:28;;;;;;;2.60;1.20;;;27.30;54.10;;;28.30;32.86;100869.34;5210856;28;20046;-80
2022/06/03 12:37:02;;;;;;;1.77;1.40;;;27.40;54.10;;;28.45;33.09;100875.09;5230869;28;20056;-81
2022/06/03 12:40:00;;;;;;;1.30;1.20;;;27.50;54.40;;;28.50;33.21;100873.13;5233126;28;20063;-80
2022/06/03 12:42:40;;;;;;;1.40;1.23;;;27.60;54.20;;;28.60;33.51;100870.00;5232433;28;20088;-79